sensor_id;sensor_type;location;lat;lon;timestamp;P1;durP1;ratioP1;P2;durP2;ratioP2
83288;SDS011;73193;50.866;5.420;2024-03-17T00:00:52;11.32;;;7.82;;
83288;SDS011;73193;50.866;5.420;2024-03-17T00:02:24;12.38;;;7.90;;
83288;SDS011;73193;50.866;5.420;2024-03-17T00:03:54;10.93;;;6.85;;
83288;SDS011;73193;50.866;5.420;2024-03-17T00:05:25;12.52;;;7.93;;
83288;SDS011;73193;50.866;5.420;2024-03-17T00:06:56;10.18;;;7.47;;
83288;SDS011;73193;50.866;5.420;2024-03-17T00:08:27;12.80;;;8.35;;
83288;SDS011;73193;50.866;5.420;2024-03-17T00:09:58;10.20;;;7.47;;
83288;SDS011;73193;50.866;5.420;2024-03-17T00:11:28;13.93;;;8.05;;
83288;SDS011;73193;50.866;5.420;2024-03-17T00:12:59;11.40;;;7.95;;
83288;SDS011;73193;50.866;5.420;2024-03-17T00:14:29;14.73;;;7.93;;
83288;SDS011;73193;50.866;5.420;2024-03-17T00:16:00;9.48;;;7.07;;
83288;SDS011;73193;50.866;5.420;2024-03-17T00:17:31;12.98;;;8.40;;
83288;SDS011;73193;50.866;5.420;2024-03-17T00:19:02;12.50;;;8.07;;
83288;SDS011;73193;50.866;5.420;2024-03-17T00:20:33;10.80;;;7.47;;
83288;SDS011;73193;50.866;5.420;2024-03-17T00:22:03;11.35;;;7.13;;
83288;SDS011;73193;50.866;5.420;2024-03-17T00:23:35;11.10;;;7.32;;
83288;SDS011;73193;50.866;5.420;2024-03-17T00:25:07;9.48;;;6.57;;
83288;SDS011;73193;50.866;5.420;2024-03-17T00:28:08;11.65;;;7.55;;
83288;SDS011;73193;50.866;5.420;2024-03-17T00:29:39;14.05;;;7.95;;
83288;SDS011;73193;50.866;5.420;2024-03-17T00:31:10;12.15;;;8.02;;
83288;SDS011;73193;50.866;5.420;2024-03-17T00:32:41;11.48;;;7.38;;
83288;SDS011;73193;50.866;5.420;2024-03-17T00:35:42;10.73;;;6.90;;
83288;SDS011;73193;50.866;5.420;2024-03-17T00:37:13;14.43;;;8.27;;
83288;SDS011;73193;50.866;5.420;2024-03-17T00:38:43;12.45;;;8.27;;
83288;SDS011;73193;50.866;5.420;2024-03-17T00:40:15;11.10;;;7.68;;
83288;SDS011;73193;50.866;5.420;2024-03-17T00:41:49;11.07;;;7.35;;
83288;SDS011;73193;50.866;5.420;2024-03-17T00:43:20;11.77;;;8.00;;
83288;SDS011;73193;50.866;5.420;2024-03-17T00:44:51;10.93;;;7.50;;
83288;SDS011;73193;50.866;5.420;2024-03-17T00:46:21;11.93;;;8.02;;
83288;SDS011;73193;50.866;5.420;2024-03-17T00:47:52;12.57;;;7.72;;
83288;SDS011;73193;50.866;5.420;2024-03-17T00:49:23;10.02;;;7.78;;
83288;SDS011;73193;50.866;5.420;2024-03-17T00:50:55;12.15;;;8.95;;
83288;SDS011;73193;50.866;5.420;2024-03-17T00:52:26;12.55;;;8.45;;
83288;SDS011;73193;50.866;5.420;2024-03-17T00:53:57;16.75;;;9.18;;
83288;SDS011;73193;50.866;5.420;2024-03-17T00:55:28;12.70;;;8.48;;
83288;SDS011;73193;50.866;5.420;2024-03-17T00:56:58;13.70;;;7.95;;
83288;SDS011;73193;50.866;5.420;2024-03-17T00:58:29;13.65;;;8.07;;
83288;SDS011;73193;50.866;5.420;2024-03-17T01:00:00;14.70;;;8.45;;
83288;SDS011;73193;50.866;5.420;2024-03-17T01:01:30;13.40;;;8.32;;
83288;SDS011;73193;50.866;5.420;2024-03-17T01:03:01;13.38;;;8.07;;
83288;SDS011;73193;50.866;5.420;2024-03-17T01:04:32;14.55;;;8.45;;
83288;SDS011;73193;50.866;5.420;2024-03-17T01:06:04;12.63;;;7.80;;
83288;SDS011;73193;50.866;5.420;2024-03-17T01:07:34;13.07;;;8.02;;
83288;SDS011;73193;50.866;5.420;2024-03-17T01:09:05;12.75;;;8.05;;
83288;SDS011;73193;50.866;5.420;2024-03-17T01:10:37;14.13;;;8.75;;
83288;SDS011;73193;50.866;5.420;2024-03-17T01:12:08;16.02;;;8.23;;
83288;SDS011;73193;50.866;5.420;2024-03-17T01:13:39;13.43;;;8.18;;
83288;SDS011;73193;50.866;5.420;2024-03-17T01:15:11;13.13;;;7.88;;
83288;SDS011;73193;50.866;5.420;2024-03-17T01:16:42;15.30;;;9.05;;
83288;SDS011;73193;50.866;5.420;2024-03-17T01:18:12;14.35;;;8.48;;
83288;SDS011;73193;50.866;5.420;2024-03-17T01:19:43;14.05;;;8.73;;
83288;SDS011;73193;50.866;5.420;2024-03-17T01:21:14;12.50;;;8.25;;
83288;SDS011;73193;50.866;5.420;2024-03-17T01:22:44;14.93;;;8.40;;
83288;SDS011;73193;50.866;5.420;2024-03-17T01:24:16;15.13;;;9.05;;
83288;SDS011;73193;50.866;5.420;2024-03-17T01:25:47;17.73;;;9.30;;
83288;SDS011;73193;50.866;5.420;2024-03-17T01:27:18;17.65;;;9.95;;
83288;SDS011;73193;50.866;5.420;2024-03-17T01:28:49;17.50;;;10.20;;
83288;SDS011;73193;50.866;5.420;2024-03-17T01:30:19;15.75;;;8.80;;
83288;SDS011;73193;50.866;5.420;2024-03-17T01:31:50;13.85;;;8.55;;
83288;SDS011;73193;50.866;5.420;2024-03-17T01:33:21;15.55;;;8.93;;
83288;SDS011;73193;50.866;5.420;2024-03-17T01:34:52;14.43;;;9.20;;
83288;SDS011;73193;50.866;5.420;2024-03-17T01:36:22;16.52;;;9.15;;
83288;SDS011;73193;50.866;5.420;2024-03-17T01:37:53;15.38;;;9.25;;
83288;SDS011;73193;50.866;5.420;2024-03-17T01:39:24;12.40;;;8.32;;
83288;SDS011;73193;50.866;5.420;2024-03-17T01:40:55;17.35;;;9.55;;
83288;SDS011;73193;50.866;5.420;2024-03-17T01:42:26;14.73;;;9.40;;
83288;SDS011;73193;50.866;5.420;2024-03-17T01:43:56;16.63;;;9.85;;
83288;SDS011;73193;50.866;5.420;2024-03-17T01:45:29;14.00;;;8.02;;
83288;SDS011;73193;50.866;5.420;2024-03-17T01:47:01;17.38;;;8.43;;
83288;SDS011;73193;50.866;5.420;2024-03-17T01:48:33;11.85;;;7.78;;
83288;SDS011;73193;50.866;5.420;2024-03-17T01:50:04;16.75;;;8.07;;
83288;SDS011;73193;50.866;5.420;2024-03-17T01:51:35;16.42;;;8.52;;
83288;SDS011;73193;50.866;5.420;2024-03-17T01:53:06;12.90;;;8.60;;
83288;SDS011;73193;50.866;5.420;2024-03-17T01:54:38;13.52;;;8.27;;
83288;SDS011;73193;50.866;5.420;2024-03-17T01:56:10;13.30;;;7.47;;
83288;SDS011;73193;50.866;5.420;2024-03-17T01:57:41;12.93;;;8.02;;
83288;SDS011;73193;50.866;5.420;2024-03-17T01:59:12;14.38;;;8.50;;
83288;SDS011;73193;50.866;5.420;2024-03-17T02:00:44;13.38;;;7.72;;
83288;SDS011;73193;50.866;5.420;2024-03-17T02:02:14;12.27;;;8.30;;
83288;SDS011;73193;50.866;5.420;2024-03-17T02:03:45;13.50;;;8.55;;
83288;SDS011;73193;50.866;5.420;2024-03-17T02:05:16;11.68;;;7.80;;
83288;SDS011;73193;50.866;5.420;2024-03-17T02:08:18;13.38;;;7.43;;
83288;SDS011;73193;50.866;5.420;2024-03-17T02:09:49;12.30;;;7.55;;
83288;SDS011;73193;50.866;5.420;2024-03-17T02:12:57;9.88;;;7.25;;
83288;SDS011;73193;50.866;5.420;2024-03-17T02:14:28;11.43;;;7.15;;
83288;SDS011;73193;50.866;5.420;2024-03-17T02:15:59;11.80;;;8.00;;
83288;SDS011;73193;50.866;5.420;2024-03-17T02:17:30;14.73;;;7.93;;
83288;SDS011;73193;50.866;5.420;2024-03-17T02:19:01;12.65;;;8.05;;
83288;SDS011;73193;50.866;5.420;2024-03-17T02:20:32;13.80;;;7.97;;
83288;SDS011;73193;50.866;5.420;2024-03-17T02:22:21;11.40;;;6.38;;
83288;SDS011;73193;50.866;5.420;2024-03-17T02:23:51;12.80;;;7.40;;
83288;SDS011;73193;50.866;5.420;2024-03-17T02:25:22;11.65;;;6.85;;
83288;SDS011;73193;50.866;5.420;2024-03-17T02:26:53;12.85;;;6.82;;
83288;SDS011;73193;50.866;5.420;2024-03-17T02:28:23;10.15;;;6.85;;
83288;SDS011;73193;50.866;5.420;2024-03-17T02:29:54;11.93;;;7.32;;
83288;SDS011;73193;50.866;5.420;2024-03-17T02:31:25;11.57;;;7.25;;
83288;SDS011;73193;50.866;5.420;2024-03-17T02:32:56;8.95;;;6.53;;
83288;SDS011;73193;50.866;5.420;2024-03-17T02:34:27;7.82;;;5.45;;
83288;SDS011;73193;50.866;5.420;2024-03-17T02:35:57;8.52;;;5.68;;
83288;SDS011;73193;50.866;5.420;2024-03-17T02:37:29;10.80;;;6.43;;
83288;SDS011;73193;50.866;5.420;2024-03-17T02:39:00;7.25;;;5.40;;
83288;SDS011;73193;50.866;5.420;2024-03-17T02:40:49;10.90;;;5.38;;
83288;SDS011;73193;50.866;5.420;2024-03-17T02:42:19;9.02;;;5.53;;
83288;SDS011;73193;50.866;5.420;2024-03-17T02:43:50;8.35;;;5.57;;
83288;SDS011;73193;50.866;5.420;2024-03-17T02:45:21;9.13;;;5.55;;
83288;SDS011;73193;50.866;5.420;2024-03-17T02:46:51;7.90;;;5.20;;
83288;SDS011;73193;50.866;5.420;2024-03-17T02:48:22;9.10;;;5.43;;
83288;SDS011;73193;50.866;5.420;2024-03-17T02:49:53;7.65;;;4.93;;
83288;SDS011;73193;50.866;5.420;2024-03-17T02:51:24;8.57;;;5.35;;
83288;SDS011;73193;50.866;5.420;2024-03-17T02:52:55;6.72;;;4.80;;
83288;SDS011;73193;50.866;5.420;2024-03-17T02:54:26;5.65;;;4.95;;
83288;SDS011;73193;50.866;5.420;2024-03-17T02:55:56;6.50;;;4.65;;
83288;SDS011;73193;50.866;5.420;2024-03-17T02:57:28;10.00;;;5.38;;
83288;SDS011;73193;50.866;5.420;2024-03-17T02:59:02;7.43;;;4.82;;
83288;SDS011;73193;50.866;5.420;2024-03-17T03:00:32;6.22;;;4.80;;
83288;SDS011;73193;50.866;5.420;2024-03-17T03:02:03;6.03;;;4.65;;
83288;SDS011;73193;50.866;5.420;2024-03-17T03:03:34;7.78;;;5.53;;
83288;SDS011;73193;50.866;5.420;2024-03-17T03:05:06;8.05;;;5.05;;
83288;SDS011;73193;50.866;5.420;2024-03-17T03:06:38;7.43;;;5.40;;
83288;SDS011;73193;50.866;5.420;2024-03-17T03:08:08;7.85;;;5.32;;
83288;SDS011;73193;50.866;5.420;2024-03-17T03:09:39;7.00;;;4.80;;
83288;SDS011;73193;50.866;5.420;2024-03-17T03:11:10;6.82;;;4.72;;
83288;SDS011;73193;50.866;5.420;2024-03-17T03:12:42;6.85;;;4.45;;
83288;SDS011;73193;50.866;5.420;2024-03-17T03:14:12;7.43;;;4.80;;
83288;SDS011;73193;50.866;5.420;2024-03-17T03:15:44;7.20;;;4.75;;
83288;SDS011;73193;50.866;5.420;2024-03-17T03:17:17;8.98;;;4.68;;
83288;SDS011;73193;50.866;5.420;2024-03-17T03:18:48;7.75;;;4.22;;
83288;SDS011;73193;50.866;5.420;2024-03-17T03:20:20;7.05;;;4.35;;
83288;SDS011;73193;50.866;5.420;2024-03-17T03:21:51;7.30;;;4.40;;
83288;SDS011;73193;50.866;5.420;2024-03-17T03:23:22;7.30;;;4.85;;
83288;SDS011;73193;50.866;5.420;2024-03-17T03:24:53;5.22;;;4.15;;
83288;SDS011;73193;50.866;5.420;2024-03-17T03:26:24;6.45;;;4.47;;
83288;SDS011;73193;50.866;5.420;2024-03-17T03:27:54;8.50;;;4.10;;
83288;SDS011;73193;50.866;5.420;2024-03-17T03:29:27;7.70;;;4.30;;
83288;SDS011;73193;50.866;5.420;2024-03-17T03:30:58;8.15;;;4.45;;
83288;SDS011;73193;50.866;5.420;2024-03-17T03:32:29;7.75;;;4.25;;
83288;SDS011;73193;50.866;5.420;2024-03-17T03:34:00;5.90;;;3.78;;
83288;SDS011;73193;50.866;5.420;2024-03-17T03:35:33;6.20;;;4.13;;
83288;SDS011;73193;50.866;5.420;2024-03-17T03:37:04;6.47;;;4.43;;
83288;SDS011;73193;50.866;5.420;2024-03-17T03:38:37;5.47;;;3.97;;
83288;SDS011;73193;50.866;5.420;2024-03-17T03:40:08;4.90;;;4.38;;
83288;SDS011;73193;50.866;5.420;2024-03-17T03:41:46;5.68;;;3.80;;
83288;SDS011;73193;50.866;5.420;2024-03-17T03:43:17;6.78;;;3.90;;
83288;SDS011;73193;50.866;5.420;2024-03-17T03:44:48;5.95;;;3.97;;
83288;SDS011;73193;50.866;5.420;2024-03-17T03:46:19;5.40;;;4.30;;
83288;SDS011;73193;50.866;5.420;2024-03-17T03:49:21;5.28;;;3.75;;
83288;SDS011;73193;50.866;5.420;2024-03-17T03:50:52;6.28;;;4.10;;
83288;SDS011;73193;50.866;5.420;2024-03-17T03:52:22;7.32;;;4.78;;
83288;SDS011;73193;50.866;5.420;2024-03-17T03:53:54;5.80;;;3.97;;
83288;SDS011;73193;50.866;5.420;2024-03-17T03:55:25;6.55;;;4.43;;
83288;SDS011;73193;50.866;5.420;2024-03-17T03:56:56;6.15;;;3.85;;
83288;SDS011;73193;50.866;5.420;2024-03-17T03:58:29;7.20;;;4.22;;
83288;SDS011;73193;50.866;5.420;2024-03-17T04:00:00;5.45;;;3.85;;
83288;SDS011;73193;50.866;5.420;2024-03-17T04:01:35;7.07;;;3.95;;
83288;SDS011;73193;50.866;5.420;2024-03-17T04:03:07;5.43;;;3.53;;
83288;SDS011;73193;50.866;5.420;2024-03-17T04:04:37;5.63;;;3.63;;
83288;SDS011;73193;50.866;5.420;2024-03-17T04:06:09;5.55;;;3.45;;
83288;SDS011;73193;50.866;5.420;2024-03-17T04:07:40;6.03;;;4.05;;
83288;SDS011;73193;50.866;5.420;2024-03-17T04:09:12;6.07;;;4.20;;
83288;SDS011;73193;50.866;5.420;2024-03-17T04:10:43;6.10;;;3.75;;
83288;SDS011;73193;50.866;5.420;2024-03-17T04:12:14;10.00;;;4.40;;
83288;SDS011;73193;50.866;5.420;2024-03-17T04:13:45;7.97;;;4.20;;
83288;SDS011;73193;50.866;5.420;2024-03-17T04:15:17;5.38;;;3.75;;
83288;SDS011;73193;50.866;5.420;2024-03-17T04:16:48;6.75;;;3.97;;
83288;SDS011;73193;50.866;5.420;2024-03-17T04:18:18;6.93;;;3.42;;
83288;SDS011;73193;50.866;5.420;2024-03-17T04:19:49;6.70;;;4.03;;
83288;SDS011;73193;50.866;5.420;2024-03-17T04:22:51;6.30;;;3.83;;
83288;SDS011;73193;50.866;5.420;2024-03-17T04:24:22;5.90;;;3.92;;
83288;SDS011;73193;50.866;5.420;2024-03-17T04:25:53;5.82;;;4.03;;
83288;SDS011;73193;50.866;5.420;2024-03-17T04:27:23;5.65;;;3.97;;
83288;SDS011;73193;50.866;5.420;2024-03-17T04:28:54;5.63;;;3.78;;
83288;SDS011;73193;50.866;5.420;2024-03-17T04:30:25;4.60;;;3.42;;
83288;SDS011;73193;50.866;5.420;2024-03-17T04:31:55;6.97;;;3.63;;
83288;SDS011;73193;50.866;5.420;2024-03-17T04:33:26;8.15;;;3.58;;
83288;SDS011;73193;50.866;5.420;2024-03-17T04:34:57;7.20;;;4.15;;
83288;SDS011;73193;50.866;5.420;2024-03-17T04:36:27;6.78;;;4.00;;
83288;SDS011;73193;50.866;5.420;2024-03-17T04:37:58;5.68;;;3.60;;
83288;SDS011;73193;50.866;5.420;2024-03-17T04:39:29;5.55;;;4.13;;
83288;SDS011;73193;50.866;5.420;2024-03-17T04:41:01;5.20;;;3.55;;
83288;SDS011;73193;50.866;5.420;2024-03-17T04:42:35;5.90;;;4.28;;
83288;SDS011;73193;50.866;5.420;2024-03-17T04:44:06;5.68;;;3.97;;
83288;SDS011;73193;50.866;5.420;2024-03-17T04:45:36;5.88;;;4.00;;
83288;SDS011;73193;50.866;5.420;2024-03-17T04:47:07;7.88;;;4.38;;
83288;SDS011;73193;50.866;5.420;2024-03-17T04:48:39;7.82;;;4.32;;
83288;SDS011;73193;50.866;5.420;2024-03-17T04:50:10;6.53;;;4.07;;
83288;SDS011;73193;50.866;5.420;2024-03-17T04:51:42;6.07;;;4.30;;
83288;SDS011;73193;50.866;5.420;2024-03-17T04:53:13;5.63;;;4.18;;
83288;SDS011;73193;50.866;5.420;2024-03-17T04:54:43;5.35;;;4.15;;
83288;SDS011;73193;50.866;5.420;2024-03-17T04:56:14;6.03;;;4.15;;
83288;SDS011;73193;50.866;5.420;2024-03-17T04:57:45;4.90;;;3.78;;
83288;SDS011;73193;50.866;5.420;2024-03-17T04:59:15;6.22;;;4.15;;
83288;SDS011;73193;50.866;5.420;2024-03-17T05:00:46;5.25;;;3.60;;
83288;SDS011;73193;50.866;5.420;2024-03-17T05:02:17;5.78;;;4.13;;
83288;SDS011;73193;50.866;5.420;2024-03-17T05:03:50;6.13;;;3.90;;
83288;SDS011;73193;50.866;5.420;2024-03-17T05:05:21;6.25;;;3.90;;
83288;SDS011;73193;50.866;5.420;2024-03-17T05:06:53;7.82;;;4.25;;
83288;SDS011;73193;50.866;5.420;2024-03-17T05:08:24;7.10;;;4.25;;
83288;SDS011;73193;50.866;5.420;2024-03-17T05:09:55;6.88;;;4.18;;
83288;SDS011;73193;50.866;5.420;2024-03-17T05:11:25;5.60;;;3.80;;
83288;SDS011;73193;50.866;5.420;2024-03-17T05:12:56;6.78;;;3.97;;
83288;SDS011;73193;50.866;5.420;2024-03-17T05:14:27;7.05;;;4.15;;
83288;SDS011;73193;50.866;5.420;2024-03-17T05:15:59;6.95;;;4.03;;
83288;SDS011;73193;50.866;5.420;2024-03-17T05:17:30;7.35;;;4.45;;
83288;SDS011;73193;50.866;5.420;2024-03-17T05:19:01;5.53;;;3.75;;
83288;SDS011;73193;50.866;5.420;2024-03-17T05:20:31;5.68;;;4.07;;
83288;SDS011;73193;50.866;5.420;2024-03-17T05:22:02;5.65;;;4.55;;
83288;SDS011;73193;50.866;5.420;2024-03-17T05:23:33;5.63;;;3.88;;
83288;SDS011;73193;50.866;5.420;2024-03-17T05:25:05;5.68;;;3.50;;
83288;SDS011;73193;50.866;5.420;2024-03-17T05:26:37;6.55;;;4.00;;
83288;SDS011;73193;50.866;5.420;2024-03-17T05:28:08;6.25;;;3.83;;
83288;SDS011;73193;50.866;5.420;2024-03-17T05:29:39;6.50;;;4.50;;
83288;SDS011;73193;50.866;5.420;2024-03-17T05:31:10;5.93;;;3.70;;
83288;SDS011;73193;50.866;5.420;2024-03-17T05:32:44;7.30;;;4.47;;
83288;SDS011;73193;50.866;5.420;2024-03-17T05:34:15;7.85;;;4.25;;
83288;SDS011;73193;50.866;5.420;2024-03-17T05:35:53;5.80;;;4.00;;
83288;SDS011;73193;50.866;5.420;2024-03-17T05:37:25;6.50;;;3.78;;
83288;SDS011;73193;50.866;5.420;2024-03-17T05:38:58;6.55;;;4.13;;
83288;SDS011;73193;50.866;5.420;2024-03-17T05:40:29;6.97;;;4.45;;
83288;SDS011;73193;50.866;5.420;2024-03-17T05:43:34;6.22;;;3.90;;
83288;SDS011;73193;50.866;5.420;2024-03-17T05:45:08;6.55;;;4.00;;
83288;SDS011;73193;50.866;5.420;2024-03-17T05:46:41;5.32;;;3.28;;
83288;SDS011;73193;50.866;5.420;2024-03-17T05:48:12;6.70;;;3.67;;
83288;SDS011;73193;50.866;5.420;2024-03-17T05:49:43;5.75;;;3.75;;
83288;SDS011;73193;50.866;5.420;2024-03-17T05:51:13;6.38;;;4.05;;
83288;SDS011;73193;50.866;5.420;2024-03-17T05:52:46;5.38;;;3.90;;
83288;SDS011;73193;50.866;5.420;2024-03-17T05:55:48;5.50;;;3.47;;
83288;SDS011;73193;50.866;5.420;2024-03-17T05:57:19;6.63;;;4.07;;
83288;SDS011;73193;50.866;5.420;2024-03-17T05:58:49;5.30;;;3.80;;
83288;SDS011;73193;50.866;5.420;2024-03-17T06:00:20;7.15;;;3.85;;
83288;SDS011;73193;50.866;5.420;2024-03-17T06:01:51;6.88;;;4.32;;
83288;SDS011;73193;50.866;5.420;2024-03-17T06:03:22;5.93;;;3.78;;
83288;SDS011;73193;50.866;5.420;2024-03-17T06:04:52;6.43;;;3.70;;
83288;SDS011;73193;50.866;5.420;2024-03-17T06:06:23;6.43;;;3.53;;
83288;SDS011;73193;50.866;5.420;2024-03-17T06:07:54;5.30;;;3.42;;
83288;SDS011;73193;50.866;5.420;2024-03-17T06:09:25;7.38;;;3.85;;
83288;SDS011;73193;50.866;5.420;2024-03-17T06:10:56;4.68;;;3.80;;
83288;SDS011;73193;50.866;5.420;2024-03-17T06:12:30;6.85;;;4.10;;
83288;SDS011;73193;50.866;5.420;2024-03-17T06:14:01;5.03;;;3.83;;
83288;SDS011;73193;50.866;5.420;2024-03-17T06:15:34;6.25;;;3.95;;
83288;SDS011;73193;50.866;5.420;2024-03-17T06:17:08;7.35;;;3.70;;
83288;SDS011;73193;50.866;5.420;2024-03-17T06:18:39;6.65;;;3.80;;
83288;SDS011;73193;50.866;5.420;2024-03-17T06:20:09;5.78;;;4.15;;
83288;SDS011;73193;50.866;5.420;2024-03-17T06:21:43;5.70;;;3.90;;
83288;SDS011;73193;50.866;5.420;2024-03-17T06:23:14;5.50;;;3.80;;
83288;SDS011;73193;50.866;5.420;2024-03-17T06:26:16;5.63;;;3.55;;
83288;SDS011;73193;50.866;5.420;2024-03-17T06:27:47;6.00;;;4.25;;
83288;SDS011;73193;50.866;5.420;2024-03-17T06:29:17;5.53;;;3.58;;
83288;SDS011;73193;50.866;5.420;2024-03-17T06:30:56;5.47;;;3.47;;
83288;SDS011;73193;50.866;5.420;2024-03-17T06:32:33;5.70;;;3.50;;
83288;SDS011;73193;50.866;5.420;2024-03-17T06:34:04;5.75;;;3.40;;
83288;SDS011;73193;50.866;5.420;2024-03-17T06:35:38;5.95;;;3.88;;
83288;SDS011;73193;50.866;5.420;2024-03-17T06:37:09;6.63;;;3.92;;
83288;SDS011;73193;50.866;5.420;2024-03-17T06:38:40;6.90;;;3.83;;
83288;SDS011;73193;50.866;5.420;2024-03-17T06:40:12;5.70;;;3.78;;
83288;SDS011;73193;50.866;5.420;2024-03-17T06:41:44;7.65;;;4.28;;
83288;SDS011;73193;50.866;5.420;2024-03-17T06:43:14;5.38;;;3.50;;
83288;SDS011;73193;50.866;5.420;2024-03-17T06:44:45;5.40;;;3.58;;
83288;SDS011;73193;50.866;5.420;2024-03-17T06:46:16;5.15;;;3.28;;
83288;SDS011;73193;50.866;5.420;2024-03-17T06:47:46;5.57;;;3.20;;
83288;SDS011;73193;50.866;5.420;2024-03-17T06:49:17;5.22;;;3.60;;
83288;SDS011;73193;50.866;5.420;2024-03-17T06:50:48;7.10;;;3.83;;
83288;SDS011;73193;50.866;5.420;2024-03-17T06:52:18;5.65;;;3.47;;
83288;SDS011;73193;50.866;5.420;2024-03-17T06:53:49;5.90;;;3.70;;
83288;SDS011;73193;50.866;5.420;2024-03-17T06:55:20;5.07;;;3.65;;
83288;SDS011;73193;50.866;5.420;2024-03-17T06:56:54;8.80;;;3.35;;
83288;SDS011;73193;50.866;5.420;2024-03-17T06:58:26;5.30;;;3.75;;
83288;SDS011;73193;50.866;5.420;2024-03-17T06:59:57;8.10;;;4.05;;
83288;SDS011;73193;50.866;5.420;2024-03-17T07:01:28;5.53;;;3.78;;
83288;SDS011;73193;50.866;5.420;2024-03-17T07:02:59;7.47;;;3.90;;
83288;SDS011;73193;50.866;5.420;2024-03-17T07:04:29;7.75;;;3.60;;
83288;SDS011;73193;50.866;5.420;2024-03-17T07:06:01;7.75;;;4.03;;
83288;SDS011;73193;50.866;5.420;2024-03-17T07:07:33;6.00;;;3.65;;
83288;SDS011;73193;50.866;5.420;2024-03-17T07:09:04;4.68;;;3.28;;
83288;SDS011;73193;50.866;5.420;2024-03-17T07:10:35;6.07;;;3.38;;
83288;SDS011;73193;50.866;5.420;2024-03-17T07:12:10;4.80;;;3.40;;
83288;SDS011;73193;50.866;5.420;2024-03-17T07:13:41;5.55;;;3.42;;
83288;SDS011;73193;50.866;5.420;2024-03-17T07:15:12;6.80;;;3.60;;
83288;SDS011;73193;50.866;5.420;2024-03-17T07:16:42;6.63;;;4.20;;
83288;SDS011;73193;50.866;5.420;2024-03-17T07:18:13;5.18;;;3.38;;
83288;SDS011;73193;50.866;5.420;2024-03-17T07:19:44;4.65;;;3.38;;
83288;SDS011;73193;50.866;5.420;2024-03-17T07:21:14;6.20;;;3.83;;
83288;SDS011;73193;50.866;5.420;2024-03-17T07:22:45;6.50;;;3.83;;
83288;SDS011;73193;50.866;5.420;2024-03-17T07:24:16;5.35;;;4.07;;
83288;SDS011;73193;50.866;5.420;2024-03-17T07:25:58;5.30;;;3.42;;
83288;SDS011;73193;50.866;5.420;2024-03-17T07:27:30;9.73;;;3.80;;
83288;SDS011;73193;50.866;5.420;2024-03-17T07:30:32;5.50;;;3.55;;
83288;SDS011;73193;50.866;5.420;2024-03-17T07:32:03;5.10;;;2.88;;
83288;SDS011;73193;50.866;5.420;2024-03-17T07:33:33;5.60;;;3.78;;
83288;SDS011;73193;50.866;5.420;2024-03-17T07:35:04;5.22;;;3.33;;
83288;SDS011;73193;50.866;5.420;2024-03-17T07:36:35;5.35;;;3.80;;
83288;SDS011;73193;50.866;5.420;2024-03-17T07:38:06;5.10;;;3.70;;
83288;SDS011;73193;50.866;5.420;2024-03-17T07:39:36;6.97;;;3.90;;
83288;SDS011;73193;50.866;5.420;2024-03-17T07:41:07;5.25;;;3.15;;
83288;SDS011;73193;50.866;5.420;2024-03-17T07:42:39;6.75;;;3.80;;
83288;SDS011;73193;50.866;5.420;2024-03-17T07:44:09;6.55;;;3.45;;
83288;SDS011;73193;50.866;5.420;2024-03-17T07:45:40;4.95;;;3.45;;
83288;SDS011;73193;50.866;5.420;2024-03-17T07:47:12;6.50;;;3.80;;
83288;SDS011;73193;50.866;5.420;2024-03-17T07:48:44;5.43;;;3.45;;
83288;SDS011;73193;50.866;5.420;2024-03-17T07:51:45;4.68;;;2.95;;
83288;SDS011;73193;50.866;5.420;2024-03-17T07:53:16;5.70;;;3.40;;
83288;SDS011;73193;50.866;5.420;2024-03-17T07:54:46;5.22;;;3.60;;
83288;SDS011;73193;50.866;5.420;2024-03-17T07:56:17;7.18;;;3.53;;
83288;SDS011;73193;50.866;5.420;2024-03-17T07:57:49;5.15;;;3.83;;
83288;SDS011;73193;50.866;5.420;2024-03-17T07:59:20;5.68;;;3.80;;
83288;SDS011;73193;50.866;5.420;2024-03-17T08:00:58;5.68;;;3.67;;
83288;SDS011;73193;50.866;5.420;2024-03-17T08:02:32;6.05;;;3.65;;
83288;SDS011;73193;50.866;5.420;2024-03-17T08:04:03;6.15;;;3.85;;
83288;SDS011;73193;50.866;5.420;2024-03-17T08:05:34;7.32;;;3.20;;
83288;SDS011;73193;50.866;5.420;2024-03-17T08:07:05;5.82;;;4.00;;
83288;SDS011;73193;50.866;5.420;2024-03-17T08:08:35;5.88;;;3.60;;
83288;SDS011;73193;50.866;5.420;2024-03-17T08:10:06;6.50;;;3.25;;
83288;SDS011;73193;50.866;5.420;2024-03-17T08:11:37;5.50;;;3.58;;
83288;SDS011;73193;50.866;5.420;2024-03-17T08:13:08;6.20;;;3.75;;
83288;SDS011;73193;50.866;5.420;2024-03-17T08:14:39;5.47;;;3.50;;
83288;SDS011;73193;50.866;5.420;2024-03-17T08:16:10;5.18;;;3.65;;
83288;SDS011;73193;50.866;5.420;2024-03-17T08:17:41;5.80;;;3.40;;
83288;SDS011;73193;50.866;5.420;2024-03-17T08:19:12;5.85;;;3.38;;
83288;SDS011;73193;50.866;5.420;2024-03-17T08:20:42;5.70;;;3.70;;
83288;SDS011;73193;50.866;5.420;2024-03-17T08:22:16;6.50;;;3.55;;
83288;SDS011;73193;50.866;5.420;2024-03-17T08:23:47;6.20;;;3.88;;
83288;SDS011;73193;50.866;5.420;2024-03-17T08:25:18;4.78;;;3.40;;
83288;SDS011;73193;50.866;5.420;2024-03-17T08:26:49;6.15;;;3.78;;
83288;SDS011;73193;50.866;5.420;2024-03-17T08:28:20;5.95;;;3.72;;
83288;SDS011;73193;50.866;5.420;2024-03-17T08:29:51;4.93;;;3.40;;
83288;SDS011;73193;50.866;5.420;2024-03-17T08:31:22;5.60;;;3.40;;
83288;SDS011;73193;50.866;5.420;2024-03-17T08:32:53;7.20;;;3.58;;
83288;SDS011;73193;50.866;5.420;2024-03-17T08:34:24;5.90;;;3.47;;
83288;SDS011;73193;50.866;5.420;2024-03-17T08:35:59;5.25;;;3.90;;
83288;SDS011;73193;50.866;5.420;2024-03-17T08:37:31;4.78;;;3.33;;
83288;SDS011;73193;50.866;5.420;2024-03-17T08:39:02;8.30;;;4.10;;
83288;SDS011;73193;50.866;5.420;2024-03-17T08:40:33;7.25;;;4.25;;
83288;SDS011;73193;50.866;5.420;2024-03-17T08:42:06;7.53;;;3.95;;
83288;SDS011;73193;50.866;5.420;2024-03-17T08:43:37;9.95;;;4.97;;
83288;SDS011;73193;50.866;5.420;2024-03-17T08:45:10;9.63;;;5.35;;
83288;SDS011;73193;50.866;5.420;2024-03-17T08:46:42;6.63;;;3.90;;
83288;SDS011;73193;50.866;5.420;2024-03-17T08:48:14;6.57;;;3.70;;
83288;SDS011;73193;50.866;5.420;2024-03-17T08:49:44;6.38;;;3.60;;
83288;SDS011;73193;50.866;5.420;2024-03-17T08:51:15;4.85;;;3.42;;
83288;SDS011;73193;50.866;5.420;2024-03-17T08:52:46;6.63;;;3.70;;
83288;SDS011;73193;50.866;5.420;2024-03-17T08:54:17;5.85;;;3.45;;
83288;SDS011;73193;50.866;5.420;2024-03-17T08:55:47;6.13;;;3.35;;
83288;SDS011;73193;50.866;5.420;2024-03-17T08:57:18;6.82;;;4.25;;
83288;SDS011;73193;50.866;5.420;2024-03-17T08:58:49;8.63;;;3.88;;
83288;SDS011;73193;50.866;5.420;2024-03-17T09:00:20;6.70;;;3.78;;
83288;SDS011;73193;50.866;5.420;2024-03-17T09:01:51;6.88;;;4.35;;
83288;SDS011;73193;50.866;5.420;2024-03-17T09:03:22;6.35;;;3.72;;
83288;SDS011;73193;50.866;5.420;2024-03-17T09:04:53;5.82;;;4.10;;
83288;SDS011;73193;50.866;5.420;2024-03-17T09:06:24;6.28;;;3.78;;
83288;SDS011;73193;50.866;5.420;2024-03-17T09:07:57;6.07;;;3.13;;
83288;SDS011;73193;50.866;5.420;2024-03-17T09:09:27;5.15;;;3.90;;
83288;SDS011;73193;50.866;5.420;2024-03-17T09:10:58;9.18;;;5.07;;
83288;SDS011;73193;50.866;5.420;2024-03-17T09:12:29;8.57;;;5.03;;
83288;SDS011;73193;50.866;5.420;2024-03-17T09:13:59;8.48;;;4.20;;
83288;SDS011;73193;50.866;5.420;2024-03-17T09:17:01;6.32;;;4.03;;
83288;SDS011;73193;50.866;5.420;2024-03-17T09:18:33;6.50;;;4.18;;
83288;SDS011;73193;50.866;5.420;2024-03-17T09:20:06;5.82;;;3.60;;
83288;SDS011;73193;50.866;5.420;2024-03-17T09:21:41;6.18;;;3.33;;
83288;SDS011;73193;50.866;5.420;2024-03-17T09:23:12;5.47;;;3.92;;
83288;SDS011;73193;50.866;5.420;2024-03-17T09:24:44;5.72;;;3.72;;
83288;SDS011;73193;50.866;5.420;2024-03-17T09:26:14;5.35;;;3.65;;